createdAt,value
2022-10-13T00:02:09.513Z,6.03
2022-10-13T00:04:38.541Z,7.77
2022-10-13T00:07:06.207Z,6.83
2022-10-13T00:09:34.803Z,7.37
2022-10-13T00:12:02.560Z,6.40
2022-10-13T00:14:30.303Z,7.30
2022-10-13T00:16:58.073Z,7.17
2022-10-13T00:19:25.800Z,6.80
2022-10-13T00:21:54.854Z,6.93
2022-10-13T00:24:22.522Z,6.67
2022-10-13T00:26:52.267Z,6.43
2022-10-13T00:29:20.057Z,6.80
2022-10-13T00:31:47.861Z,7.43
2022-10-13T00:34:15.597Z,8.00
2022-10-13T00:36:43.291Z,7.67
2022-10-13T00:39:12.352Z,7.37
2022-10-13T00:41:40.190Z,6.97
2022-10-13T00:44:46.313Z,7.70
2022-10-13T00:47:13.967Z,6.87
2022-10-13T00:49:41.634Z,8.20
2022-10-13T00:52:09.301Z,7.40
2022-10-13T00:54:38.643Z,7.37
2022-10-13T00:57:09.348Z,7.73
2022-10-13T00:59:38.564Z,6.73
2022-10-13T01:02:06.823Z,7.77
2022-10-13T01:04:39.615Z,6.93
2022-10-13T01:07:08.102Z,7.13
2022-10-13T01:09:37.741Z,6.70
2022-10-13T01:12:18.417Z,6.47
2022-10-13T01:14:53.811Z,7.53
2022-10-13T01:17:34.582Z,6.53
2022-10-13T01:20:30.522Z,6.97
2022-10-13T01:23:13.422Z,6.67
2022-10-13T01:26:00.930Z,6.03
2022-10-13T01:28:48.127Z,7.00
2022-10-13T01:31:21.747Z,6.80
2022-10-13T01:33:58.022Z,6.37
2022-10-13T01:36:32.906Z,7.33
2022-10-13T01:39:06.656Z,6.47
2022-10-13T01:41:38.367Z,6.70
2022-10-13T01:44:13.026Z,5.97
2022-10-13T01:46:42.674Z,6.47
2022-10-13T01:49:13.528Z,6.00
2022-10-13T01:51:43.181Z,6.60
2022-10-13T01:54:11.159Z,6.60
2022-10-13T01:56:38.802Z,6.53
2022-10-13T01:59:11.662Z,6.80
2022-10-13T02:01:54.946Z,5.97
2022-10-13T02:04:35.258Z,6.80
2022-10-13T02:07:09.517Z,5.97
2022-10-13T02:09:44.602Z,6.00
2022-10-13T02:12:20.016Z,6.70
2022-10-13T02:14:50.323Z,6.63
2022-10-13T02:17:20.578Z,6.67
2022-10-13T02:19:48.386Z,6.20
2022-10-13T02:22:17.685Z,6.13
2022-10-13T02:24:45.496Z,6.07
2022-10-13T02:27:13.427Z,6.27
2022-10-13T02:29:51.164Z,5.83
2022-10-13T02:32:20.797Z,5.97
2022-10-13T02:34:48.919Z,5.97
2022-10-13T02:37:16.803Z,6.67
2022-10-13T02:39:44.742Z,5.83
2022-10-13T02:42:12.574Z,5.47
2022-10-13T02:44:42.941Z,6.20
2022-10-13T02:47:10.625Z,7.77
2022-10-13T02:49:39.575Z,6.00
2022-10-13T02:52:07.311Z,6.17
2022-10-13T02:54:34.992Z,6.83
2022-10-13T02:57:03.005Z,6.60
2022-10-13T02:59:30.578Z,7.37
2022-10-13T03:01:58.386Z,6.70
2022-10-13T03:04:26.139Z,6.67
2022-10-13T03:06:55.179Z,6.33
2022-10-13T03:09:22.893Z,5.50
2022-10-13T03:11:50.657Z,6.70
2022-10-13T03:14:18.483Z,7.67
2022-10-13T03:16:46.169Z,6.60
2022-10-13T03:19:14.018Z,6.47
2022-10-13T03:21:42.152Z,6.57
2022-10-13T03:24:11.187Z,6.43
2022-10-13T03:26:39.119Z,6.30
2022-10-13T03:29:06.725Z,7.80
2022-10-13T03:31:34.478Z,6.57
2022-10-13T03:34:02.157Z,7.57
2022-10-13T03:36:30.169Z,6.53
2022-10-13T03:38:57.782Z,6.60
2022-10-13T03:41:26.940Z,6.57
2022-10-13T03:43:55.267Z,6.77
2022-10-13T03:46:25.082Z,6.47
2022-10-13T03:48:52.800Z,7.33
2022-10-13T03:51:22.463Z,7.93
2022-10-13T03:53:51.902Z,7.17
2022-10-13T03:56:21.656Z,6.83
2022-10-13T03:58:53.814Z,6.60
2022-10-13T04:01:21.804Z,7.97
2022-10-13T04:03:49.914Z,6.83
2022-10-13T04:06:17.765Z,7.33
2022-10-13T04:08:45.605Z,6.93
2022-10-13T04:11:15.383Z,7.90
2022-10-13T04:13:44.138Z,7.17
2022-10-13T04:16:16.039Z,7.47
2022-10-13T04:18:44.994Z,6.50
2022-10-13T04:21:15.512Z,7.23
2022-10-13T04:23:43.610Z,7.10
2022-10-13T04:26:18.599Z,6.83
2022-10-13T04:28:47.259Z,7.27
2022-10-13T04:31:17.104Z,8.23
2022-10-13T04:33:45.762Z,6.70
2022-10-13T04:36:14.984Z,7.80
2022-10-13T04:38:43.268Z,6.97
2022-10-13T04:41:14.914Z,7.17
2022-10-13T04:43:43.567Z,6.43
2022-10-13T04:46:14.854Z,7.27
2022-10-13T04:48:43.858Z,6.80
2022-10-13T04:51:13.904Z,8.27
2022-10-13T04:53:41.710Z,8.40
2022-10-13T04:56:11.725Z,8.00
2022-10-13T04:58:40.506Z,7.17
2022-10-13T05:01:09.552Z,7.77
2022-10-13T05:03:37.236Z,8.13
2022-10-13T05:06:06.707Z,8.00
2022-10-13T05:08:34.698Z,7.87
2022-10-13T05:11:03.230Z,6.67
2022-10-13T05:13:31.448Z,7.57
2022-10-13T05:16:02.116Z,7.00
2022-10-13T05:18:29.762Z,8.70
2022-10-13T05:20:57.438Z,7.30
2022-10-13T05:23:26.555Z,8.70
2022-10-13T05:25:56.239Z,8.37
2022-10-13T05:28:23.976Z,9.07
2022-10-13T05:30:51.773Z,8.83
2022-10-13T05:33:19.387Z,8.70
2022-10-13T05:35:47.020Z,7.03
2022-10-13T05:38:15.157Z,8.07
2022-10-13T05:40:44.175Z,8.73
2022-10-13T05:43:11.916Z,7.97
2022-10-13T05:45:40.398Z,8.53
2022-10-13T05:48:08.274Z,10.50
2022-10-13T05:50:37.423Z,8.97
2022-10-13T05:53:05.044Z,9.33
2022-10-13T05:55:32.740Z,8.93
2022-10-13T05:58:03.572Z,8.37
2022-10-13T06:00:31.423Z,9.47
2022-10-13T06:03:05.153Z,7.60
2022-10-13T06:05:33.752Z,8.43
2022-10-13T06:08:01.862Z,8.43
2022-10-13T06:10:29.578Z,9.50
2022-10-13T06:12:57.201Z,9.33
2022-10-13T06:15:28.327Z,9.10
2022-10-13T06:17:56.207Z,9.80
2022-10-13T06:20:24.062Z,12.87
2022-10-13T06:22:51.806Z,8.80
2022-10-13T06:25:19.581Z,8.87
2022-10-13T06:27:47.328Z,9.67
2022-10-13T06:30:15.161Z,9.60
2022-10-13T06:32:44.225Z,9.27
2022-10-13T06:35:12.061Z,9.07
2022-10-13T06:37:39.827Z,9.07
2022-10-13T06:40:08.686Z,9.30
2022-10-13T06:42:36.593Z,9.07
2022-10-13T06:45:07.282Z,9.43
2022-10-13T06:47:36.288Z,9.13
2022-10-13T06:50:06.101Z,9.40
2022-10-13T06:52:33.990Z,9.87
2022-10-13T06:55:01.602Z,10.70
2022-10-13T06:57:29.440Z,9.43
2022-10-13T06:59:57.037Z,10.30
2022-10-13T07:02:24.861Z,9.67
2022-10-13T07:04:52.689Z,10.53
2022-10-13T07:07:21.899Z,11.10
2022-10-13T07:09:49.718Z,10.20
2022-10-13T07:12:18.434Z,9.97
2022-10-13T07:14:46.388Z,9.50
2022-10-13T07:17:14.124Z,9.50
2022-10-13T07:19:41.791Z,9.17
2022-10-13T07:22:09.519Z,9.67
2022-10-13T07:24:38.601Z,9.93
2022-10-13T07:27:18.940Z,9.43
2022-10-13T07:29:46.701Z,10.43
2022-10-13T07:32:14.463Z,10.43
2022-10-13T07:34:42.960Z,10.00
2022-10-13T07:37:10.685Z,9.30
2022-10-13T07:39:39.707Z,9.60
2022-10-13T07:42:07.493Z,9.57
2022-10-13T07:44:35.229Z,10.37
2022-10-13T07:47:03.026Z,12.23
2022-10-13T07:49:30.611Z,11.27
2022-10-13T07:51:58.420Z,12.77
2022-10-13T07:54:27.478Z,9.60
2022-10-13T07:56:57.650Z,12.37
2022-10-13T07:59:26.005Z,10.27
2022-10-13T08:01:53.849Z,10.00
2022-10-13T08:04:21.776Z,11.23
2022-10-13T08:06:49.487Z,9.83
2022-10-13T08:09:17.560Z,10.73
2022-10-13T08:11:51.501Z,10.90
2022-10-13T08:14:21.434Z,13.50
2022-10-13T08:16:52.965Z,11.93
2022-10-13T08:19:22.178Z,11.70
2022-10-13T08:21:59.264Z,10.77
2022-10-13T08:24:28.637Z,10.33
2022-10-13T08:26:56.500Z,10.63
2022-10-13T08:29:25.854Z,9.80
2022-10-13T08:31:54.142Z,11.70
2022-10-13T08:34:22.352Z,11.87
2022-10-13T08:36:53.134Z,10.60
2022-10-13T08:39:21.518Z,10.33
2022-10-13T08:41:49.683Z,10.90
2022-10-13T08:45:05.869Z,10.13
2022-10-13T08:47:19.295Z,10.40
2022-10-13T08:49:47.595Z,12.20
2022-10-13T08:52:21.386Z,9.73
2022-10-13T08:54:50.451Z,11.57
2022-10-13T08:57:20.622Z,11.23
2022-10-13T08:59:51.348Z,9.77
2022-10-13T09:02:30.406Z,10.43
2022-10-13T09:05:03.322Z,11.57
2022-10-13T09:07:35.749Z,10.97
2022-10-13T09:10:07.986Z,9.57
2022-10-13T09:12:35.772Z,11.57
2022-10-13T09:15:06.167Z,12.13
2022-10-13T09:17:35.884Z,10.50
2022-10-13T09:20:07.207Z,10.33
2022-10-13T09:22:36.633Z,10.13
2022-10-13T09:25:22.223Z,10.80
2022-10-13T09:27:51.815Z,9.60
2022-10-13T09:30:29.788Z,10.57
2022-10-13T09:33:15.433Z,10.37
2022-10-13T09:35:45.708Z,10.10
2022-10-13T09:38:16.390Z,11.37
2022-10-13T09:40:45.163Z,10.27
2022-10-13T09:43:29.295Z,10.93
2022-10-13T09:45:58.048Z,10.13
2022-10-13T09:48:29.168Z,10.70
2022-10-13T09:50:59.159Z,11.13
2022-10-13T09:53:33.083Z,11.20
2022-10-13T09:56:19.663Z,12.03
2022-10-13T09:58:53.249Z,11.23
2022-10-13T10:01:28.285Z,11.90
2022-10-13T10:03:58.787Z,12.67
2022-10-13T10:06:27.952Z,12.03
2022-10-13T10:09:04.208Z,12.20
2022-10-13T10:11:36.221Z,12.77
2022-10-13T10:14:16.737Z,11.70
2022-10-13T10:16:49.267Z,12.03
2022-10-13T10:19:26.011Z,11.00
2022-10-13T10:22:03.903Z,16.00
2022-10-13T10:24:39.785Z,12.77
2022-10-13T10:27:17.412Z,11.80
2022-10-13T10:29:50.607Z,14.57
2022-10-13T10:32:28.888Z,12.37
2022-10-13T10:35:03.333Z,12.67
2022-10-13T10:37:44.882Z,15.83
2022-10-13T10:40:25.718Z,12.63
2022-10-13T10:43:21.623Z,13.07
2022-10-13T10:45:49.611Z,12.97
2022-10-13T10:48:22.500Z,20.97
2022-10-13T10:50:52.012Z,11.73
2022-10-13T10:53:28.607Z,10.37
2022-10-13T10:56:01.666Z,14.93
2022-10-13T10:58:38.410Z,12.47
2022-10-13T11:01:16.111Z,11.03
2022-10-13T11:04:24.069Z,12.23
2022-10-13T11:06:53.334Z,13.17
2022-10-13T11:09:54.240Z,11.33
2022-10-13T11:12:25.594Z,16.03
2022-10-13T11:15:06.041Z,12.47
2022-10-13T11:17:37.062Z,11.00
2022-10-13T11:20:46.576Z,12.17
2022-10-13T11:23:46.399Z,12.00
2022-10-13T11:26:32.406Z,12.00
2022-10-13T11:29:00.806Z,13.37
2022-10-13T11:31:50.197Z,13.60
2022-10-13T11:34:32.395Z,10.83
2022-10-13T11:37:02.994Z,11.20
2022-10-13T11:40:07.604Z,12.80
2022-10-13T11:43:11.168Z,10.93
2022-10-13T11:46:06.400Z,11.47
2022-10-13T11:48:55.072Z,11.23
2022-10-13T11:51:32.301Z,12.53
2022-10-13T11:54:12.861Z,10.07
2022-10-13T11:56:50.051Z,10.87
2022-10-13T11:59:22.814Z,9.70
2022-10-13T12:01:54.554Z,9.93
2022-10-13T12:04:24.514Z,10.77
2022-10-13T12:06:58.158Z,10.30
2022-10-13T12:09:26.074Z,11.17
2022-10-13T12:12:07.472Z,12.50
2022-10-13T12:14:40.123Z,10.00
2022-10-13T12:17:23.675Z,9.53
2022-10-13T12:19:52.100Z,9.20
2022-10-13T12:22:19.918Z,8.13
2022-10-13T12:24:59.094Z,9.97
2022-10-13T12:27:32.533Z,11.43
2022-10-13T12:30:00.564Z,9.70
2022-10-13T12:32:30.408Z,9.53
2022-10-13T12:35:07.265Z,8.50
2022-10-13T12:37:36.859Z,8.30
2022-10-13T12:40:05.538Z,9.13
2022-10-13T12:42:37.323Z,10.40
2022-10-13T12:45:06.079Z,9.00
2022-10-13T12:47:39.266Z,8.80
2022-10-13T12:50:37.003Z,9.70
2022-10-13T12:53:26.655Z,8.70
2022-10-13T12:55:59.035Z,7.67
2022-10-13T12:58:31.929Z,8.17
2022-10-13T13:01:09.319Z,8.40
2022-10-13T13:03:39.229Z,7.97
2022-10-13T13:06:24.513Z,9.90
2022-10-13T13:09:23.551Z,8.47
2022-10-13T13:12:05.098Z,8.13
2022-10-13T13:14:39.545Z,8.13
2022-10-13T13:17:12.531Z,8.33
2022-10-13T13:19:43.255Z,9.77
2022-10-13T13:22:11.340Z,9.37
2022-10-13T13:24:40.592Z,8.63
2022-10-13T13:27:17.599Z,8.83
2022-10-13T13:29:47.080Z,8.80
2022-10-13T13:32:19.015Z,9.00
2022-10-13T13:34:51.165Z,9.03
2022-10-13T13:37:26.611Z,8.77
2022-10-13T13:39:55.099Z,10.10
2022-10-13T13:42:25.991Z,9.70
2022-10-13T13:44:58.939Z,9.80
2022-10-13T13:47:29.035Z,11.13
2022-10-13T13:49:58.031Z,9.53
2022-10-13T13:52:26.963Z,9.47
2022-10-13T13:54:56.123Z,9.90
2022-10-13T13:57:23.874Z,10.70
2022-10-13T13:59:52.112Z,10.97
2022-10-13T14:02:22.430Z,11.67
2022-10-13T14:04:50.123Z,11.23
2022-10-13T14:07:18.976Z,10.27
2022-10-13T14:09:47.112Z,10.80
2022-10-13T14:12:15.034Z,10.80
2022-10-13T14:14:43.710Z,10.30
2022-10-13T14:17:13.231Z,10.37
2022-10-13T14:19:46.546Z,11.27
2022-10-13T14:22:14.841Z,9.40
2022-10-13T14:24:42.783Z,9.53
2022-10-13T14:27:11.371Z,8.33
2022-10-13T14:29:39.300Z,10.03
2022-10-13T14:32:09.471Z,9.60
2022-10-13T14:34:37.502Z,10.50
2022-10-13T14:37:06.682Z,10.10
2022-10-13T14:39:34.390Z,9.80
2022-10-13T14:42:05.360Z,9.40
2022-10-13T14:44:33.602Z,9.03
2022-10-13T14:47:01.309Z,10.60
2022-10-13T14:49:28.908Z,10.37
2022-10-13T14:51:59.949Z,10.40
2022-10-13T14:54:29.086Z,10.83
2022-10-13T14:56:56.815Z,9.20
2022-10-13T14:59:24.428Z,7.67
2022-10-13T15:01:52.211Z,8.27
2022-10-13T15:04:19.926Z,8.77
2022-10-13T15:06:47.908Z,9.67
2022-10-13T15:09:15.692Z,9.83
2022-10-13T15:11:46.207Z,8.73
2022-10-13T15:14:13.986Z,8.63
2022-10-13T15:16:42.019Z,9.67
2022-10-13T15:19:09.947Z,8.77
2022-10-13T15:21:37.685Z,9.53
2022-10-13T15:24:05.633Z,9.03
2022-10-13T15:26:33.698Z,9.83
2022-10-13T15:29:03.049Z,9.90
2022-10-13T15:31:31.552Z,9.53
2022-10-13T15:33:59.275Z,9.47
2022-10-13T15:36:27.063Z,9.93
2022-10-13T15:38:54.938Z,10.27
2022-10-13T15:41:26.796Z,10.30
2022-10-13T15:43:54.453Z,10.10
2022-10-13T15:46:26.389Z,9.70
2022-10-13T15:49:04.025Z,10.70
2022-10-13T15:51:34.222Z,9.83
2022-10-13T15:54:02.110Z,9.30
2022-10-13T15:56:30.007Z,26.90
2022-10-13T15:59:00.235Z,41.07
2022-10-13T16:01:29.502Z,26.87
2022-10-13T16:03:57.396Z,17.70
2022-10-13T16:06:27.777Z,11.97
2022-10-13T16:08:55.856Z,11.33
2022-10-13T16:11:24.350Z,10.17
2022-10-13T16:13:53.562Z,11.50
2022-10-13T16:16:22.363Z,13.60
2022-10-13T16:18:51.817Z,12.90
2022-10-13T16:21:21.829Z,13.00
2022-10-13T16:23:49.978Z,11.87
2022-10-13T16:26:18.845Z,12.43
2022-10-13T16:28:47.133Z,14.23
2022-10-13T16:31:17.279Z,13.47
2022-10-13T16:33:46.385Z,13.00
2022-10-13T16:36:17.045Z,11.77
2022-10-13T16:38:45.289Z,12.23
2022-10-13T16:41:15.208Z,12.30
2022-10-13T16:43:43.745Z,13.67
2022-10-13T16:46:19.162Z,15.17
2022-10-13T16:48:51.771Z,14.70
2022-10-13T16:51:23.038Z,13.83
2022-10-13T16:53:51.699Z,15.00
2022-10-13T16:56:22.245Z,15.47
2022-10-13T16:58:50.558Z,16.33
2022-10-13T17:01:21.457Z,16.13
2022-10-13T17:03:58.683Z,17.77
2022-10-13T17:06:30.019Z,17.97
2022-10-13T17:09:06.531Z,19.40
2022-10-13T17:11:48.111Z,21.00
2022-10-13T17:14:18.849Z,22.00
2022-10-13T17:16:46.770Z,20.63
2022-10-13T17:19:14.417Z,19.77
2022-10-13T17:21:44.411Z,20.13
2022-10-13T17:24:12.091Z,20.97
2022-10-13T17:26:40.206Z,19.00
2022-10-13T17:29:07.927Z,22.60
2022-10-13T17:31:35.695Z,20.07
2022-10-13T17:34:03.768Z,17.53
2022-10-13T17:36:34.257Z,18.40
2022-10-13T17:39:06.722Z,16.53
2022-10-13T17:41:35.135Z,16.77
2022-10-13T17:44:03.469Z,17.00
2022-10-13T17:46:38.442Z,15.53
2022-10-13T17:49:07.297Z,15.50
2022-10-13T17:51:35.234Z,16.97
2022-10-13T17:54:05.192Z,16.50
2022-10-13T17:56:32.944Z,18.60
2022-10-13T17:59:01.897Z,16.67
2022-10-13T18:01:32.784Z,16.40
2022-10-13T18:04:03.238Z,16.43
2022-10-13T18:06:37.987Z,17.30
2022-10-13T18:09:09.765Z,16.47
2022-10-13T18:11:38.189Z,17.97
2022-10-13T18:14:06.544Z,15.53
2022-10-13T18:16:35.448Z,15.83
2022-10-13T18:19:03.617Z,17.40
2022-10-13T18:21:31.514Z,18.70
2022-10-13T18:24:00.938Z,16.97
2022-10-13T18:26:34.843Z,17.87
2022-10-13T18:29:03.382Z,18.07
2022-10-13T18:31:32.621Z,17.60
2022-10-13T18:34:03.547Z,17.90
2022-10-13T18:36:33.352Z,17.03
2022-10-13T18:39:07.339Z,17.73
2022-10-13T18:41:38.131Z,18.33
2022-10-13T18:44:07.058Z,17.13
2022-10-13T18:46:35.597Z,16.70
2022-10-13T18:49:03.763Z,17.47
2022-10-13T18:51:36.127Z,21.07
2022-10-13T18:54:05.485Z,18.73
2022-10-13T18:56:36.118Z,20.03
2022-10-13T18:59:07.013Z,18.93
2022-10-13T19:01:36.412Z,19.60
2022-10-13T19:04:05.384Z,20.93
2022-10-13T19:06:34.169Z,19.73
2022-10-13T19:09:03.871Z,19.30
2022-10-13T19:11:33.297Z,22.67
2022-10-13T19:14:01.928Z,20.83
2022-10-13T19:16:33.009Z,18.70
2022-10-13T19:19:00.723Z,20.33
2022-10-13T19:21:28.544Z,19.77
2022-10-13T19:23:59.953Z,20.53
2022-10-13T19:26:30.618Z,19.37
2022-10-13T19:29:00.679Z,18.50
2022-10-13T19:31:34.999Z,19.70
2022-10-13T19:34:02.810Z,20.37
2022-10-13T19:36:33.123Z,18.60
2022-10-13T19:39:01.886Z,20.63
2022-10-13T19:41:31.519Z,19.70
2022-10-13T19:44:01.137Z,21.53
2022-10-13T19:46:29.104Z,21.30
2022-10-13T19:48:58.260Z,20.20
2022-10-13T19:51:25.909Z,20.83
2022-10-13T19:53:53.681Z,19.77
2022-10-13T19:56:24.344Z,19.47
2022-10-13T19:59:14.072Z,20.70
2022-10-13T20:01:42.088Z,21.80
2022-10-13T20:04:11.725Z,21.47
2022-10-13T20:06:39.660Z,23.27
2022-10-13T20:09:08.503Z,23.27
2022-10-13T20:11:36.412Z,44.80
2022-10-13T20:14:04.269Z,21.80
2022-10-13T20:16:32.394Z,27.03
2022-10-13T20:19:01.769Z,22.17
2022-10-13T20:21:31.838Z,22.53
2022-10-13T20:24:00.260Z,22.77
2022-10-13T20:26:28.324Z,24.07
2022-10-13T20:28:58.225Z,24.07
2022-10-13T20:31:26.139Z,23.40
2022-10-13T20:33:55.917Z,21.83
2022-10-13T20:36:25.491Z,20.23
2022-10-13T20:38:55.353Z,21.03
2022-10-13T20:41:25.603Z,22.80
2022-10-13T20:43:54.896Z,22.07
2022-10-13T20:46:24.730Z,22.87
2022-10-13T20:51:41.726Z,22.03
2022-10-13T20:54:11.432Z,22.63
2022-10-13T20:56:39.854Z,22.00
2022-10-13T20:59:10.379Z,22.70
2022-10-13T21:01:43.554Z,23.00
2022-10-13T21:04:11.376Z,22.93
2022-10-13T21:06:39.554Z,25.67
2022-10-13T21:09:07.380Z,26.00
2022-10-13T21:11:37.907Z,23.60
2022-10-13T21:14:09.485Z,21.77
2022-10-13T21:16:38.127Z,22.00
2022-10-13T21:19:07.514Z,22.47
2022-10-13T21:21:36.219Z,21.43
2022-10-13T21:24:10.801Z,22.13
2022-10-13T21:26:41.542Z,21.80
2022-10-13T21:29:09.337Z,20.23
2022-10-13T21:31:37.051Z,22.77
2022-10-13T21:34:05.145Z,22.43
2022-10-13T21:36:34.434Z,21.23
2022-10-13T21:39:04.902Z,20.87
2022-10-13T21:41:32.661Z,20.33
2022-10-13T21:44:02.570Z,21.63
2022-10-13T21:46:31.900Z,20.43
2022-10-13T21:49:01.592Z,20.17
2022-10-13T21:51:31.425Z,21.00
2022-10-13T21:54:01.215Z,21.20
2022-10-13T21:56:29.608Z,21.30
2022-10-13T21:58:57.229Z,21.97
2022-10-13T22:01:26.360Z,22.43
2022-10-13T22:03:56.387Z,21.97
2022-10-13T22:06:24.677Z,20.93
2022-10-13T22:08:54.368Z,21.60
2022-10-13T22:11:23.997Z,21.10
2022-10-13T22:13:52.226Z,20.93
2022-10-13T22:16:21.741Z,22.70
2022-10-13T22:18:52.636Z,21.13
2022-10-13T22:21:23.020Z,22.47
2022-10-13T22:23:50.766Z,21.17
2022-10-13T22:26:19.825Z,22.27
2022-10-13T22:28:51.300Z,22.17
2022-10-13T22:31:19.606Z,22.13
2022-10-13T22:33:47.789Z,22.60
2022-10-13T22:36:19.201Z,23.70
2022-10-13T22:38:48.473Z,22.60
2022-10-13T22:41:17.699Z,22.33
2022-10-13T22:43:47.891Z,22.40
2022-10-13T22:46:17.106Z,21.97
2022-10-13T22:48:45.285Z,20.77
2022-10-13T22:51:18.925Z,20.67
2022-10-13T22:53:47.401Z,21.67
2022-10-13T22:56:17.463Z,21.07
2022-10-13T22:58:45.509Z,21.03
2022-10-13T23:01:16.041Z,21.80
2022-10-13T23:03:44.435Z,21.10
2022-10-13T23:06:15.987Z,21.87
2022-10-13T23:08:45.206Z,21.43
2022-10-13T23:11:13.013Z,20.77
2022-10-13T23:13:40.779Z,20.50
2022-10-13T23:16:10.831Z,21.13
2022-10-13T23:18:41.035Z,21.03
2022-10-13T23:21:11.339Z,20.43
2022-10-13T23:23:39.124Z,20.97
2022-10-13T23:26:10.355Z,21.60
2022-10-13T23:28:38.125Z,20.17
2022-10-13T23:31:07.739Z,20.40
2022-10-13T23:33:35.710Z,20.33
2022-10-13T23:36:05.273Z,22.23
2022-10-13T23:38:33.635Z,21.67
2022-10-13T23:41:21.851Z,20.80
2022-10-13T23:43:49.531Z,19.90
2022-10-13T23:46:44.774Z,21.47
2022-10-13T23:49:19.644Z,23.90
2022-10-13T23:51:47.394Z,22.43
2022-10-13T23:54:15.100Z,21.50
2022-10-13T23:56:44.209Z,21.23
2022-10-13T23:59:11.967Z,22.07
